Time;durP1;ratioP1;P1;durP2;ratioP2;P2;SDS_P1;SDS_P2;PMS_P1;PMS_P2;Temp;Humidity;BMP_temperature;BMP_pressure;BME280_temperature;BME280_humidity;BME280_pressure;Samples;Min_cycle;Max_cycle;Signal;HPM_P1;HPM_P2
2022/11/21 00:00:50;;;;;;;2.20;1.38;;;;;;;4.40;100.00;96126.09;5021568;28;20048;-68
2022/11/21 00:03:16;;;;;;;3.07;1.50;;;;;;;4.31;100.00;96126.22;5017100;28;20048;-68
2022/11/21 00:05:44;;;;;;;8.32;1.85;;;;;;;4.33;100.00;96117.75;5019850;28;20045;-68
2022/11/21 00:08:12;;;;;;;2.28;1.73;;;;;;;4.40;100.00;96126.88;5025546;28;20041;-68
2022/11/21 00:10:39;;;;;;;2.80;1.45;;;;;;;4.43;100.00;96111.88;5051585;28;20137;-68
2022/11/21 00:13:05;;;;;;;2.08;1.35;;;;;;;4.39;100.00;96108.25;5041867;28;20424;-67
2022/11/21 00:15:32;;;;;;;2.80;1.30;;;;;;;4.38;100.00;96106.69;5049758;28;20505;-68
2022/11/21 00:18:01;;;;;;;1.75;1.10;;;;;;;4.42;100.00;96106.78;5045623;28;20383;-69
2022/11/21 00:20:27;;;;;;;3.58;1.23;;;;;;;4.44;100.00;96102.59;5033887;28;20030;-69
2022/11/21 00:22:52;;;;;;;1.98;1.23;;;;;;;4.40;100.00;96102.47;5022628;28;20609;-69
2022/11/21 00:25:17;;;;;;;1.45;1.35;;;;;;;4.43;100.00;96100.22;4999227;28;20045;-69
2022/11/21 00:27:43;;;;;;;2.50;1.83;;;;;;;4.38;100.00;96099.31;5020318;28;20072;-71
2022/11/21 00:30:10;;;;;;;2.25;1.30;;;;;;;4.40;100.00;96096.28;4999040;28;20045;-70
2022/11/21 00:32:35;;;;;;;1.52;1.13;;;;;;;4.43;100.00;96105.63;5010251;28;20440;-69
2022/11/21 00:35:01;;;;;;;2.92;1.40;;;;;;;4.47;100.00;96099.22;5033884;28;20069;-69
2022/11/21 00:37:26;;;;;;;2.45;1.50;;;;;;;4.50;100.00;96093.09;5024054;28;20049;-70
2022/11/21 00:39:52;;;;;;;2.35;1.27;;;;;;;4.54;100.00;96091.28;5018243;28;20387;-68
2022/11/21 00:42:17;;;;;;;2.17;1.30;;;;;;;4.60;100.00;96106.19;5013456;28;20096;-69
2022/11/21 00:44:42;;;;;;;1.48;1.20;;;;;;;4.60;100.00;96106.19;5017399;28;20103;-69
2022/11/21 00:47:08;;;;;;;2.80;1.60;;;;;;;4.55;100.00;96100.19;5014683;28;20061;-69
2022/11/21 00:49:33;;;;;;;2.45;1.60;;;;;;;4.56;100.00;96102.56;5022081;28;20049;-69
2022/11/21 00:51:59;;;;;;;1.65;1.20;;;;;;;4.60;100.00;96092.63;5003824;28;20140;-69
2022/11/21 00:54:24;;;;;;;1.83;1.20;;;;;;;4.60;100.00;96092.63;5016356;28;20049;-69
2022/11/21 00:56:49;;;;;;;3.10;1.20;;;;;;;4.60;100.00;96081.78;5017503;28;20414;-69
2022/11/21 00:59:15;;;;;;;2.65;1.40;;;;;;;4.57;100.00;96077.06;5031124;28;20163;-69
2022/11/21 01:01:40;;;;;;;2.03;1.40;;;;;;;4.60;100.00;96073.63;5040880;28;20040;-68
2022/11/21 01:04:06;;;;;;;2.42;1.40;;;;;;;4.56;100.00;96069.25;5017000;28;20064;-69
2022/11/21 01:06:31;;;;;;;3.88;1.40;;;;;;;4.56;100.00;96070.03;5020684;28;20037;-69
2022/11/21 01:08:57;;;;;;;2.95;1.40;;;;;;;4.56;100.00;96072.75;5021062;28;20033;-70
2022/11/21 01:11:22;;;;;;;2.22;1.33;;;;;;;4.55;100.00;96073.09;5016164;28;20064;-70
2022/11/21 01:13:48;;;;;;;4.25;1.40;;;;;;;4.57;100.00;96070.81;5001522;28;20061;-70
2022/11/21 01:16:19;;;;;;;3.38;1.40;;;;;;;4.56;100.00;96075.47;5012322;28;20041;-69
2022/11/21 01:18:45;;;;;;;2.10;1.48;;;;;;;4.62;100.00;96069.81;5021421;28;20052;-68
2022/11/21 01:21:22;;;;;;;2.80;1.50;;;;;;;4.72;100.00;96061.19;5015027;28;20038;-69
2022/11/21 01:23:47;;;;;;;2.65;1.40;;;;;;;4.66;100.00;96052.47;5021343;28;20033;-68
2022/11/21 01:26:17;;;;;;;1.80;1.20;;;;;;;4.66;100.00;96055.19;5015751;28;20817;-69
2022/11/21 01:28:42;;;;;;;1.55;1.35;;;;;;;4.63;100.00;96053.19;5020045;28;20506;-69
2022/11/21 01:31:13;;;;;;;2.53;1.13;;;;;;;4.69;100.00;96048.31;5016131;28;20080;-69
2022/11/21 01:33:39;;;;;;;3.88;1.40;;;;;;;4.64;100.00;96048.53;5034405;28;20037;-69
2022/11/21 01:36:26;;;;;;;4.55;1.20;;;;;;;4.56;100.00;96047.56;5046994;28;20059;-68
2022/11/21 01:38:55;;;;;;;1.75;1.20;;;;;;;4.58;100.00;96054.19;5030982;28;20095;-69
2022/11/21 01:41:30;;;;;;;4.25;1.30;;;;;;;4.64;100.00;96043.13;5033723;28;20029;-68
2022/11/21 01:43:56;;;;;;;3.13;1.17;;;;;;;4.59;100.00;96039.53;5020372;28;20041;-69
2022/11/21 01:46:22;;;;;;;4.30;1.23;;;;;;;4.62;100.00;96027.19;4997151;28;20888;-70
2022/11/21 01:49:01;;;;;;;2.25;1.10;;;;;;;4.66;100.00;96019.94;5003576;28;20140;-70
2022/11/21 01:51:59;;;;;;;3.28;1.20;;;;;;;4.76;100.00;96022.16;5025370;28;20038;-70
2022/11/21 01:54:31;;;;;;;3.83;1.05;;;;;;;4.66;100.00;96008.28;5034115;28;20498;-70
2022/11/21 01:57:09;;;;;;;4.38;1.10;;;;;;;4.71;100.00;96011.56;5040215;28;20047;-70
2022/11/21 01:59:41;;;;;;;3.45;1.00;;;;;;;4.79;100.00;96001.69;5022154;28;20076;-70
2022/11/21 02:02:08;;;;;;;2.72;1.15;;;;;;;4.84;100.00;95997.94;5025405;28;20042;-70
2022/11/21 02:04:35;;;;;;;4.07;1.20;;;;;;;4.86;100.00;95987.53;5025411;28;20137;-70
2022/11/21 02:07:05;;;;;;;2.92;1.20;;;;;;;4.80;100.00;95989.69;5020375;28;20407;-69
2022/11/21 02:09:33;;;;;;;7.88;1.30;;;;;;;4.76;100.00;95989.59;5020066;28;20045;-69
2022/11/21 02:12:11;;;;;;;3.17;1.10;;;;;;;4.81;100.00;95982.34;5019659;28;20095;-69
2022/11/21 02:14:38;;;;;;;4.30;1.33;;;;;;;4.83;100.00;95985.53;5020309;28;20087;-69
2022/11/21 02:17:06;;;;;;;2.00;1.10;;;;;;;4.83;100.00;95972.72;5015070;28;20049;-69
2022/11/21 02:19:54;;;;;;;3.63;1.42;;;;;;;4.88;100.00;95971.69;5002290;28;20156;-68
2022/11/21 02:22:38;;;;;;;1.63;1.05;;;;;;;4.88;100.00;95971.69;5008842;28;20050;-68
2022/11/21 02:25:05;;;;;;;2.55;1.40;;;;;;;4.97;100.00;95959.53;5016113;28;20038;-68
2022/11/21 02:27:31;;;;;;;2.65;1.20;;;;;;;4.89;100.00;95962.41;5001900;28;20037;-68
2022/11/21 02:29:57;;;;;;;2.22;1.00;;;;;;;4.91;100.00;95962.84;5024126;28;20041;-69
2022/11/21 02:32:31;;;;;;;3.50;1.30;;;;;;;4.92;100.00;95972.59;5017989;28;20205;-68
2022/11/21 02:34:56;;;;;;;1.45;1.15;;;;;;;4.90;100.00;95972.94;5024665;28;20053;-68
2022/11/21 02:37:22;;;;;;;2.25;1.10;;;;;;;4.97;100.00;95969.63;5020923;28;20890;-68
2022/11/21 02:39:48;;;;;;;1.77;1.00;;;;;;;4.94;100.00;95954.81;5048867;28;20087;-68
2022/11/21 02:42:30;;;;;;;2.85;1.00;;;;;;;4.98;100.00;95971.97;5039186;28;20641;-68
2022/11/21 02:45:10;;;;;;;2.25;1.25;;;;;;;5.00;100.00;95962.69;5033111;28;20054;-69
2022/11/21 02:47:38;;;;;;;1.25;1.15;;;;;;;5.03;100.00;95959.28;5036949;28;20049;-69
2022/11/21 02:50:19;;;;;;;1.88;1.08;;;;;;;5.15;100.00;95953.78;5050260;28;20063;-67
2022/11/21 02:52:44;;;;;;;2.33;1.10;;;;;;;5.03;100.00;95943.78;5041176;28;20060;-68
2022/11/21 02:55:14;;;;;;;2.28;1.23;;;;;;;5.01;100.00;95939.84;5038377;28;20080;-69
2022/11/21 02:57:39;;;;;;;5.80;1.33;;;;;;;4.91;100.00;95925.63;5042359;28;20036;-69
2022/11/21 03:00:06;;;;;;;2.25;1.10;;;;;;;4.90;100.00;95937.66;5019086;28;20128;-68
2022/11/21 03:02:31;;;;;;;1.92;1.00;;;;;;;5.01;100.00;95918.94;5006728;28;20042;-69
2022/11/21 03:04:57;;;;;;;2.47;1.10;;;;;;;4.96;100.00;95917.25;5024295;28;20048;-68
2022/11/21 03:07:22;;;;;;;1.88;1.02;;;;;;;4.96;100.00;95919.19;5018310;28;20947;-69
2022/11/21 03:09:47;;;;;;;6.47;1.20;;;;;;;5.00;100.00;95909.19;5023473;28;20056;-68
2022/11/21 03:12:13;;;;;;;4.25;1.17;;;;;;;4.92;100.00;95910.94;5001390;28;20491;-68
2022/11/21 03:14:38;;;;;;;4.97;1.08;;;;;;;4.93;100.00;95914.44;5018772;28;20053;-71
2022/11/21 03:17:04;;;;;;;1.85;1.00;;;;;;;4.90;100.00;95912.44;5014653;28;20073;-66
2022/11/21 03:19:30;;;;;;;2.63;1.20;;;;;;;4.95;100.00;95904.84;5022213;28;20041;-69
2022/11/21 03:21:55;;;;;;;1.75;0.80;;;;;;;5.01;100.00;95905.34;5022514;28;20061;-69
2022/11/21 03:24:21;;;;;;;3.17;1.33;;;;;;;4.99;100.00;95891.34;5018035;28;20851;-69
2022/11/21 03:26:47;;;;;;;4.07;1.30;;;;;;;4.96;100.00;95897.47;5022507;28;20041;-69
2022/11/21 03:29:12;;;;;;;4.53;1.77;;;;;;;5.02;100.00;95898.00;5000203;28;20108;-68
2022/11/21 03:31:38;;;;;;;2.90;1.30;;;;;;;4.96;100.00;95890.09;5020287;28;20069;-69
2022/11/21 03:34:03;;;;;;;4.55;1.45;;;;;;;4.93;100.00;95890.84;5019553;28;20124;-66
2022/11/21 03:36:29;;;;;;;3.00;0.90;;;;;;;4.97;100.00;95880.06;5017088;28;20076;-69
2022/11/21 03:38:58;;;;;;;2.67;1.10;;;;;;;4.95;100.00;95876.88;5023457;28;20068;-69
2022/11/21 03:41:30;;;;;;;2.70;1.30;;;;;;;4.92;100.00;95875.66;5017325;28;20080;-69
2022/11/21 03:44:01;;;;;;;4.70;1.02;;;;;;;5.02;100.00;95879.00;5021957;28;20056;-69
2022/11/21 03:46:28;;;;;;;1.50;1.00;;;;;;;5.02;100.00;95879.00;5017773;28;20100;-67
2022/11/21 03:48:54;;;;;;;2.33;1.00;;;;;;;4.94;100.00;95870.69;5023952;28;20048;-68
2022/11/21 03:51:20;;;;;;;1.60;1.08;;;;;;;4.94;100.00;95867.19;5018170;28;20487;-69
2022/11/21 03:53:45;;;;;;;2.78;0.93;;;;;;;5.00;100.00;95873.91;5022445;28;20037;-68
2022/11/21 03:56:11;;;;;;;1.45;0.88;;;;;;;5.04;100.00;95863.97;4999262;28;20099;-68
2022/11/21 03:58:36;;;;;;;2.50;0.93;;;;;;;4.94;100.00;95867.19;5033031;28;20071;-69
2022/11/21 04:01:02;;;;;;;3.60;1.20;;;;;;;4.94;100.00;95865.25;5041590;28;20045;-65
2022/11/21 04:03:27;;;;;;;3.83;1.23;;;;;;;4.97;100.00;95844.78;5046088;28;20033;-68
2022/11/21 04:05:53;;;;;;;3.83;1.33;;;;;;;5.02;100.00;95865.44;5049179;28;20075;-65
2022/11/21 04:08:18;;;;;;;3.47;1.30;;;;;;;5.00;100.00;95868.50;5038888;28;20045;-65
2022/11/21 04:10:51;;;;;;;2.35;1.02;;;;;;;4.93;100.00;95866.41;5043807;28;20056;-67
2022/11/21 04:13:18;;;;;;;4.72;1.15;;;;;;;4.91;100.00;95863.22;5037810;28;20068;-68
2022/11/21 04:15:45;;;;;;;2.60;1.42;;;;;;;4.75;100.00;95868.69;5042055;28;20056;-68
2022/11/21 04:18:11;;;;;;;1.25;0.93;;;;;;;4.75;100.00;95868.69;5039191;28;20140;-70
2022/11/21 04:20:37;;;;;;;4.15;1.80;;;;;;;4.75;100.00;95857.81;5049760;28;20095;-70
2022/11/21 04:23:03;;;;;;;3.88;1.45;;;;;;;4.67;100.00;95866.13;5052918;28;20045;-67
2022/11/21 04:25:29;;;;;;;2.30;1.17;;;;;;;4.67;100.00;95871.56;5051388;28;20389;-71
2022/11/21 04:27:58;;;;;;;2.20;1.13;;;;;;;4.66;100.00;95864.53;5051610;28;20102;-70
2022/11/21 04:30:24;;;;;;;4.82;1.17;;;;;;;4.72;100.00;95858.50;5038988;28;20576;-72
2022/11/21 04:32:51;;;;;;;4.90;1.15;;;;;;;4.61;100.00;95868.31;5043309;28;20119;-70
2022/11/21 04:35:16;;;;;;;4.40;1.10;;;;;;;4.69;100.00;95844.84;5038749;28;20055;-68
2022/11/21 04:37:42;;;;;;;3.13;1.20;;;;;;;4.64;100.00;95861.38;5041765;28;20045;-69
2022/11/21 04:40:07;;;;;;;1.88;1.20;;;;;;;4.61;100.00;95843.91;5036930;28;20493;-68
2022/11/21 04:42:33;;;;;;;2.92;1.20;;;;;;;4.63;100.00;95860.59;5033758;28;20049;-68
2022/11/21 04:44:58;;;;;;;3.95;1.50;;;;;;;4.71;100.00;95856.16;5033050;28;20053;-68
2022/11/21 04:47:24;;;;;;;7.88;1.08;;;;;;;4.72;100.00;95863.16;5029380;28;20542;-69
2022/11/21 04:49:49;;;;;;;5.55;1.48;;;;;;;4.71;100.00;95859.63;5026747;28;20069;-69
2022/11/21 04:52:14;;;;;;;3.50;1.33;;;;;;;4.72;100.00;95866.66;5017843;28;20042;-69
2022/11/21 04:54:40;;;;;;;4.55;1.50;;;;;;;4.70;100.00;95859.97;5021613;28;20063;-69
2022/11/21 04:57:06;;;;;;;4.22;1.40;;;;;;;4.72;100.00;95866.66;5018214;28;20234;-69
2022/11/21 04:59:31;;;;;;;2.45;1.27;;;;;;;4.68;100.00;95878.53;5040298;28;20041;-69
2022/11/21 05:01:57;;;;;;;3.80;1.30;;;;;;;4.70;100.00;95847.22;5048221;28;20083;-68
2022/11/21 05:04:22;;;;;;;4.45;1.60;;;;;;;4.73;100.00;95872.84;5046964;28;20134;-69
2022/11/21 05:06:47;;;;;;;3.22;1.20;;;;;;;4.77;100.00;95871.81;5042460;28;20049;-69
2022/11/21 05:09:13;;;;;;;5.55;1.40;;;;;;;4.74;100.00;95877.94;5036901;28;20032;-69
2022/11/21 05:14:25;;;;;;;3.30;1.20;;;;;;;4.66;100.00;95868.03;5016841;28;20591;-69
2022/11/21 05:16:51;;;;;;;3.15;1.10;;;;;;;4.75;100.00;95867.88;5021531;28;20140;-68
2022/11/21 05:19:16;;;;;;;5.97;1.45;;;;;;;4.69;100.00;95864.63;5017915;28;20034;-69
2022/11/21 05:21:42;;;;;;;4.20;1.15;;;;;;;4.74;100.00;95869.03;5022272;28;20042;-70
2022/11/21 05:24:07;;;;;;;4.03;1.48;;;;;;;4.71;100.00;95865.06;5017215;28;20080;-70
2022/11/21 05:26:33;;;;;;;3.47;1.10;;;;;;;4.75;100.00;95865.16;5017972;28;20071;-70
2022/11/21 05:28:58;;;;;;;4.13;1.52;;;;;;;4.66;100.00;95850.97;5014945;28;20055;-69
2022/11/21 05:31:23;;;;;;;2.65;1.10;;;;;;;4.66;100.00;95840.13;5022866;28;20576;-70
2022/11/21 05:33:49;;;;;;;5.38;1.35;;;;;;;4.65;100.00;95861.03;5022199;28;20108;-71
2022/11/21 05:36:14;;;;;;;6.60;1.42;;;;;;;4.65;100.00;95855.63;5013570;28;20045;-66
2022/11/21 05:38:39;;;;;;;4.65;1.30;;;;;;;4.69;100.00;95845.63;5003928;28;20045;-71
2022/11/21 05:41:05;;;;;;;2.50;1.20;;;;;;;4.74;100.00;95842.66;5018646;28;20046;-67
2022/11/21 05:43:45;;;;;;;5.97;1.45;;;;;;;4.73;100.00;95864.72;5027971;28;20431;-70
2022/11/21 05:46:16;;;;;;;4.82;1.20;;;;;;;4.79;100.00;95861.41;5037629;28;20075;-66
2022/11/21 05:48:42;;;;;;;3.13;1.17;;;;;;;4.87;100.00;95869.72;5005203;28;20111;-69
2022/11/21 05:51:08;;;;;;;2.72;1.20;;;;;;;4.86;100.00;95866.22;5025991;28;20036;-70
2022/11/21 05:53:34;;;;;;;4.68;1.27;;;;;;;4.82;100.00;95861.84;5041412;28;20063;-69
2022/11/21 05:56:14;;;;;;;2.95;0.90;;;;;;;4.72;100.00;95853.09;5040310;28;20136;-69
2022/11/21 05:58:40;;;;;;;4.30;1.15;;;;;;;4.67;100.00;95864.19;5041697;28;20041;-69
2022/11/21 06:01:07;;;;;;;3.05;1.15;;;;;;;4.60;100.00;95872.94;5019083;28;20513;-67
2022/11/21 06:03:35;;;;;;;6.70;1.55;;;;;;;4.57;100.00;95879.06;5039105;28;20136;-68
2022/11/21 06:06:05;;;;;;;3.72;1.58;;;;;;;4.53;100.00;95877.38;5023222;28;20609;-70
2022/11/21 06:08:33;;;;;;;4.20;1.40;;;;;;;4.46;100.00;95871.78;5039248;28;20072;-67
2022/11/21 06:10:59;;;;;;;3.42;1.30;;;;;;;4.38;100.00;95884.34;5040467;28;20043;-70
2022/11/21 06:13:27;;;;;;;3.88;1.52;;;;;;;4.40;100.00;95882.88;5037534;28;20128;-68
2022/11/21 06:16:09;;;;;;;8.32;2.00;;;;;;;4.40;100.00;95884.78;5021254;28;20387;-69
2022/11/21 06:18:40;;;;;;;6.03;1.55;;;;;;;4.39;100.00;95875.88;5021504;28;20048;-69
2022/11/21 06:21:12;;;;;;;4.10;1.20;;;;;;;4.34;100.00;95886.97;5014957;28;20041;-70
2022/11/21 06:23:38;;;;;;;3.00;1.20;;;;;;;4.34;100.00;95883.44;5038013;28;20073;-69
2022/11/21 06:26:05;;;;;;;4.40;1.65;;;;;;;4.28;100.00;95885.63;5025763;28;20072;-67
2022/11/21 06:28:34;;;;;;;2.50;1.20;;;;;;;4.28;100.00;95892.97;5021105;28;20111;-68
2022/11/21 06:31:10;;;;;;;3.80;1.38;;;;;;;4.29;100.00;95892.63;5021434;28;20422;-69
2022/11/21 06:33:36;;;;;;;2.25;1.13;;;;;;;4.27;100.00;95892.19;5025558;28;20053;-71
2022/11/21 06:36:04;;;;;;;2.83;1.27;;;;;;;4.40;100.00;95891.00;5010688;28;20558;-68
2022/11/21 06:38:30;;;;;;;3.08;1.35;;;;;;;4.46;100.00;95886.09;5022528;28;20104;-71
2022/11/21 06:40:55;;;;;;;3.75;1.42;;;;;;;4.48;100.00;95881.13;5024946;28;20034;-72
2022/11/21 06:43:21;;;;;;;3.00;1.70;;;;;;;4.47;100.00;95892.34;5015437;28;20115;-71
2022/11/21 06:45:46;;;;;;;9.35;2.42;;;;;;;4.45;100.00;95898.09;4985744;28;20041;-69
2022/11/21 06:48:11;;;;;;;3.35;1.75;;;;;;;4.46;100.00;95896.19;5022637;28;20073;-70
2022/11/21 06:50:37;;;;;;;6.75;2.17;;;;;;;4.56;100.00;95899.16;5036334;28;20042;-70
2022/11/21 06:53:03;;;;;;;3.13;1.60;;;;;;;4.56;100.00;95891.03;5023942;28;20080;-68
2022/11/21 06:55:30;;;;;;;5.75;2.28;;;;;;;4.52;100.00;95903.72;5019787;28;20053;-69
2022/11/21 06:57:59;;;;;;;5.97;1.25;;;;;;;4.48;100.00;95896.59;5026270;28;20047;-68
2022/11/21 07:00:28;;;;;;;5.65;2.25;;;;;;;4.58;100.00;95896.91;5018074;28;20072;-68
2022/11/21 07:02:58;;;;;;;11.30;1.90;;;;;;;4.57;100.00;95900.75;5041496;28;20573;-67
2022/11/21 07:05:23;;;;;;;4.63;1.50;;;;;;;4.66;100.00;95897.09;5033402;28;20095;-69
2022/11/21 07:07:49;;;;;;;6.53;2.70;;;;;;;4.70;100.00;95898.75;5041653;28;20072;-69
2022/11/21 07:10:14;;;;;;;9.40;1.90;;;;;;;4.66;100.00;95907.94;5036165;28;20099;-70
2022/11/21 07:15:23;;;;;;;5.63;1.70;;;;;;;4.76;100.00;95905.50;5031755;28;20075;-69
2022/11/21 07:17:49;;;;;;;4.00;1.50;;;;;;;4.71;100.00;95910.41;5027015;28;20037;-68
2022/11/21 07:20:14;;;;;;;4.63;1.50;;;;;;;4.71;100.00;95903.03;5021232;28;20049;-69
2022/11/21 07:22:40;;;;;;;5.13;1.65;;;;;;;4.81;100.00;95914.50;5025672;28;20037;-69
2022/11/21 07:25:06;;;;;;;5.40;1.50;;;;;;;4.74;100.00;95915.13;5006990;28;20033;-66
2022/11/21 07:27:31;;;;;;;7.68;1.60;;;;;;;4.57;100.00;95914.31;5028506;28;20072;-68
2022/11/21 07:29:57;;;;;;;3.38;1.30;;;;;;;4.48;100.00;95907.47;5035870;28;20113;-68
2022/11/21 07:32:26;;;;;;;6.18;1.70;;;;;;;4.48;100.00;95916.38;5030909;28;20050;-67
2022/11/21 07:34:52;;;;;;;5.57;1.60;;;;;;;4.37;100.00;95918.78;5031545;28;20120;-67
2022/11/21 07:37:17;;;;;;;7.65;2.10;;;;;;;4.39;100.00;95913.03;5004832;28;20040;-67
2022/11/21 07:39:43;;;;;;;1.52;1.10;;;;;;;4.29;100.00;95900.00;5022195;28;20029;-66
2022/11/21 07:42:08;;;;;;;4.32;1.40;;;;;;;4.30;100.00;95905.03;5018547;28;20042;-67
2022/11/21 07:44:34;;;;;;;3.72;1.70;;;;;;;4.32;100.00;95904.69;5023299;28;20076;-66
2022/11/21 07:46:59;;;;;;;4.80;1.63;;;;;;;4.28;100.00;95901.09;5020383;28;20050;-67
2022/11/21 07:49:25;;;;;;;3.35;1.30;;;;;;;4.29;100.00;95908.13;5010002;28;20490;-67
2022/11/21 07:51:50;;;;;;;4.95;1.20;;;;;;;4.40;100.00;95892.94;4999854;28;20045;-67
2022/11/21 07:54:16;;;;;;;2.78;1.27;;;;;;;4.43;100.00;95903.09;5010488;28;20124;-67
2022/11/21 07:56:41;;;;;;;3.72;1.40;;;;;;;4.35;100.00;95887.75;5018862;28;20095;-67
2022/11/21 07:59:06;;;;;;;2.58;1.33;;;;;;;4.53;100.00;95888.22;5015392;28;20455;-67
2022/11/21 08:01:32;;;;;;;5.30;1.50;;;;;;;4.51;100.00;95885.06;5017572;28;20052;-66
2022/11/21 08:03:57;;;;;;;3.40;1.13;;;;;;;4.62;100.00;95882.66;5017398;28;20060;-67
2022/11/21 08:06:23;;;;;;;2.97;1.02;;;;;;;4.65;100.00;95885.44;5010557;28;20989;-66
2022/11/21 08:08:52;;;;;;;4.28;1.17;;;;;;;4.64;100.00;95892.00;4998195;28;20037;-66
2022/11/21 08:11:18;;;;;;;5.43;0.98;;;;;;;4.60;100.00;95896.56;5012258;28;20458;-67
2022/11/21 08:13:44;;;;;;;1.38;0.90;;;;;;;4.54;100.00;95900.66;5022860;28;20131;-67
2022/11/21 08:16:10;;;;;;;8.10;2.33;;;;;;;4.60;100.00;95886.50;4995266;28;20042;-68
2022/11/21 08:18:36;;;;;;;2.70;1.10;;;;;;;4.60;100.00;95888.41;5016530;28;20045;-66
2022/11/21 08:21:02;;;;;;;39.22;29.70;;;;;;;4.61;100.00;95895.44;5017149;28;20041;-68
2022/11/21 08:23:28;;;;;;;6.43;2.38;;;;;;;4.70;100.00;95887.09;4992129;28;20041;-67
2022/11/21 08:25:54;;;;;;;4.32;1.80;;;;;;;4.56;100.00;95899.16;5022774;28;20364;-65
2022/11/21 08:28:19;;;;;;;3.35;1.30;;;;;;;4.59;100.00;95893.06;5018548;28;20060;-66
2022/11/21 08:30:44;;;;;;;3.85;1.40;;;;;;;4.56;100.00;95892.97;5021734;28;20045;-64
2022/11/21 08:33:10;;;;;;;3.50;1.15;;;;;;;4.59;100.00;95879.50;5019211;28;20534;-65
2022/11/21 08:35:37;;;;;;;3.92;1.25;;;;;;;4.66;100.00;95872.69;5032626;28;20049;-65
2022/11/21 08:38:02;;;;;;;2.42;1.10;;;;;;;4.97;100.00;95861.06;5021920;28;20056;-65
2022/11/21 08:40:30;;;;;;;2.95;1.30;;;;;;;5.12;100.00;95868.41;5010705;28;20664;-65
2022/11/21 08:43:00;;;;;;;5.60;1.52;;;;;;;5.24;100.00;95870.25;5010942;28;20080;-66
2022/11/21 08:45:26;;;;;;;4.03;2.00;;;;;;;5.28;100.00;95862.97;4995782;28;20391;-67
2022/11/21 08:47:52;;;;;;;1.95;1.00;;;;;;;5.63;100.00;95864.91;5013808;28;20048;-66
2022/11/21 08:50:18;;;;;;;5.13;1.23;;;;;;;5.68;100.00;95872.00;5017895;28;20038;-66
2022/11/21 08:52:43;;;;;;;2.17;0.95;;;;;;;5.81;100.00;95870.72;5030198;28;20065;-67
2022/11/21 08:55:09;;;;;;;2.10;1.30;;;;;;;5.74;100.00;95868.66;5029325;28;20045;-65
2022/11/21 08:57:38;;;;;;;4.10;1.27;;;;;;;5.72;100.00;95870.91;5040536;28;20041;-66
2022/11/21 09:00:04;;;;;;;5.50;1.40;;;;;;;5.75;100.00;95867.50;5041180;28;20081;-64
2022/11/21 09:02:30;;;;;;;4.13;1.30;;;;;;;5.73;100.00;95866.28;5043195;28;20060;-69
2022/11/21 09:04:55;;;;;;;4.43;2.17;;;;;;;5.71;100.00;95863.16;5026760;28;20036;-67
2022/11/21 09:07:20;;;;;;;5.10;1.70;;;;;;;5.84;100.00;95861.84;5039898;28;22139;-67
2022/11/21 09:09:46;;;;;;;3.13;1.33;;;;;;;5.67;100.00;95863.06;5043666;28;20049;-66
2022/11/21 09:12:11;;;;;;;3.90;1.50;;;;;;;5.73;100.00;95858.91;5037425;28;20134;-67
2022/11/21 09:20:06;;;;;;;7.13;2.40;;;;;;;6.09;100.00;95853.47;5017777;28;20038;-67
2022/11/21 09:22:31;;;;;;;6.15;1.80;;;;;;;6.29;100.00;95852.31;5019844;28;20057;-67
2022/11/21 09:24:56;;;;;;;4.35;1.48;;;;;;;6.42;100.00;95850.22;5022285;28;20239;-67
2022/11/21 09:27:22;;;;;;;3.88;1.52;;;;;;;6.50;100.00;95848.44;4998053;28;20060;-67
2022/11/21 09:29:47;;;;;;;5.05;1.40;;;;;;;6.54;100.00;95848.50;5004379;28;20041;-67
2022/11/21 09:32:12;;;;;;;4.75;1.30;;;;;;;6.74;100.00;95847.28;5017366;28;20103;-66
2022/11/21 09:34:38;;;;;;;5.15;1.20;;;;;;;6.89;100.00;95846.38;5018536;28;20046;-66
2022/11/21 09:37:03;;;;;;;10.63;2.00;;;;;;;7.32;100.00;95840.06;5013179;28;20045;-67
2022/11/21 09:39:28;;;;;;;7.15;2.65;;;;;;;7.20;100.00;95844.56;5007987;28;20034;-67
2022/11/21 09:41:57;;;;;;;6.28;1.90;;;;;;;6.95;100.00;95835.19;5015743;28;20566;-66
2022/11/21 09:44:59;;;;;;;5.05;1.65;;;;;;;6.70;100.00;95849.16;5010222;28;20504;-67
2022/11/21 09:47:31;;;;;;;2.85;1.27;;;;;;;6.67;100.00;95847.16;5008836;28;20042;-66
2022/11/21 09:50:15;;;;;;;4.47;1.45;;;;;;;6.96;100.00;95839.50;5015611;28;20526;-67
2022/11/21 09:52:47;;;;;;;4.53;1.30;;;;;;;7.33;100.00;95838.88;5015440;28;20412;-66
2022/11/21 09:55:25;;;;;;;2.78;1.33;;;;;;;7.75;100.00;95835.22;5009989;28;20196;-67
2022/11/21 09:57:50;;;;;;;6.00;1.67;;;;;;;7.55;100.00;95829.09;5015326;28;20065;-67
2022/11/21 10:00:23;;;;;;;20.60;8.48;;;;;;;7.45;100.00;95823.13;5016329;28;20047;-68
2022/11/21 10:02:53;;;;;;;9.95;2.75;;;;;;;7.45;100.00;95806.78;5004062;28;20049;-68
2022/11/21 10:05:36;;;;;;;5.85;1.95;;;;;;;7.54;100.00;95809.22;4996250;28;20045;-67
2022/11/21 10:08:12;;;;;;;5.57;1.30;;;;;;;7.79;100.00;95803.31;5020963;28;20041;-68
2022/11/21 10:11:23;;;;;;;4.70;1.08;;;;;;;7.71;100.00;95804.41;5021010;28;20068;-68
2022/11/21 10:14:02;;;;;;;6.28;1.45;;;;;;;7.62;100.00;95800.00;4981929;28;20494;-68
2022/11/21 10:16:50;;;;;;;7.72;2.28;;;;;;;7.54;100.00;95787.44;4991171;28;20117;-68
2022/11/21 10:19:18;;;;;;;5.28;1.52;;;;;;;7.18;100.00;95780.69;5007679;28;20112;-68
2022/11/21 10:22:07;;;;;;;5.90;1.40;;;;;;;6.84;100.00;95772.41;5014817;28;20060;-67
2022/11/21 10:24:48;;;;;;;7.45;1.65;;;;;;;7.14;100.00;95755.34;5012815;28;20518;-68
2022/11/21 10:27:39;;;;;;;6.28;1.58;;;;;;;7.24;100.00;95741.91;5008593;28;20100;-66
2022/11/21 10:30:16;;;;;;;4.80;1.50;;;;;;;7.16;100.00;95731.25;4992948;28;20071;-67
2022/11/21 10:32:46;;;;;;;3.85;1.83;;;;;;;7.44;100.00;95728.16;5015916;28;20553;-68
2022/11/21 10:35:14;;;;;;;15.80;6.68;;;;;;;7.77;100.00;95727.38;5010782;28;20050;-68
2022/11/21 10:38:25;;;;;;;4.25;1.73;;;;;;;8.73;100.00;95724.03;5014704;28;20520;-68
2022/11/21 10:41:02;;;;;;;4.53;1.70;;;;;;;8.65;100.00;95725.13;4971964;28;20410;-68
2022/11/21 10:46:11;;;;;;;7.78;1.77;;;;;;;8.39;100.00;95709.66;5007555;28;20079;-67
2022/11/21 10:48:36;;;;;;;5.60;1.20;;;;;;;9.09;99.33;95707.91;5014446;28;20456;-68
2022/11/21 10:51:30;;;;;;;5.55;1.70;;;;;;;9.69;95.04;95692.97;5015252;28;20471;-67
2022/11/21 10:56:53;;;;;;;8.25;1.38;;;;;;;10.19;90.08;95688.78;5019451;28;20072;-67
2022/11/21 10:59:25;;;;;;;5.63;1.13;;;;;;;9.87;87.97;95679.34;5027936;28;20034;-67
2022/11/21 11:02:00;;;;;;;8.60;1.40;;;;;;;9.92;82.29;95670.75;5021215;28;20505;-67
2022/11/21 11:04:28;;;;;;;4.90;1.27;;;;;;;10.13;81.22;95658.28;5013431;28;20079;-67
2022/11/21 11:06:54;;;;;;;5.53;1.38;;;;;;;9.90;79.33;95656.69;5018951;28;20498;-67
2022/11/21 11:09:27;;;;;;;6.18;1.50;;;;;;;9.84;82.78;95654.72;5011573;28;20038;-68
2022/11/21 11:12:13;;;;;;;5.03;1.40;;;;;;;10.15;79.09;95642.25;5019266;28;20041;-68
2022/11/21 11:14:39;;;;;;;3.05;1.10;;;;;;;10.21;80.09;95637.97;5001994;28;20038;-68
2022/11/21 11:17:04;;;;;;;6.20;1.00;;;;;;;9.96;79.78;95632.47;5015599;28;20045;-66
2022/11/21 11:19:30;;;;;;;4.55;1.27;;;;;;;10.67;74.71;95625.47;5006622;28;20136;-68
2022/11/21 11:21:55;;;;;;;4.30;1.20;;;;;;;10.87;74.17;95623.88;5019690;28;20049;-68
2022/11/21 11:24:28;;;;;;;5.05;1.13;;;;;;;10.50;74.14;95610.63;5012801;28;20041;-68
2022/11/21 11:27:02;;;;;;;4.35;1.08;;;;;;;10.83;70.68;95606.66;4997138;28;20033;-68
2022/11/21 11:29:34;;;;;;;10.02;3.17;;;;;;;11.16;68.62;95601.88;5013070;28;20144;-68
2022/11/21 11:32:15;;;;;;;3.85;1.45;;;;;;;10.69;72.19;95601.97;5018241;28;20510;-68
2022/11/21 11:35:01;;;;;;;5.95;1.05;;;;;;;11.06;68.66;95592.50;5022669;28;20424;-68
2022/11/21 11:37:33;;;;;;;4.30;1.13;;;;;;;10.32;73.07;95589.53;5004003;28;20556;-68
2022/11/21 11:40:05;;;;;;;2.90;0.98;;;;;;;10.33;73.63;95582.09;5013816;28;20049;-68
2022/11/21 11:48:47;;;;;;;5.25;1.15;;;;;;;11.24;67.94;95561.53;5021778;28;20041;-68
2022/11/21 11:51:31;;;;;;;6.55;1.15;;;;;;;10.90;70.17;95553.81;5025017;28;20145;-68
2022/11/21 11:54:06;;;;;;;5.28;1.00;;;;;;;10.56;70.02;95550.78;5031603;28;20037;-68
2022/11/21 11:56:37;;;;;;;7.75;1.30;;;;;;;10.94;68.29;95549.09;5015805;28;20042;-67
2022/11/21 11:59:08;;;;;;;4.47;1.42;;;;;;;11.16;66.77;95538.81;5020606;28;20037;-68
2022/11/21 12:01:56;;;;;;;10.35;0.95;;;;;;;11.71;65.48;95537.38;5018748;28;20618;-68
2022/11/21 12:04:24;;;;;;;8.80;1.30;;;;;;;12.92;60.60;95542.19;5014960;28;20708;-67